sensor_id;sensor_type;location;lat;lon;timestamp;pressure;altitude;pressure_sealevel;temperature;humidity
58072;BME280;60383;46.626;18.866;2023-02-14T00:01:29;102254.94;;;4.94;69.44
58072;BME280;60383;46.626;18.866;2023-02-14T00:03:55;102252.00;;;4.99;70.11
58072;BME280;60383;46.626;18.866;2023-02-14T00:06:25;102258.44;;;4.79;70.58
58072;BME280;60383;46.626;18.866;2023-02-14T00:08:50;102257.19;;;4.67;70.48
58072;BME280;60383;46.626;18.866;2023-02-14T00:11:18;102261.13;;;4.79;70.41
58072;BME280;60383;46.626;18.866;2023-02-14T00:13:44;102260.28;;;4.59;71.28
58072;BME280;60383;46.626;18.866;2023-02-14T00:16:30;102256.00;;;4.54;71.40
58072;BME280;60383;46.626;18.866;2023-02-14T00:18:57;102256.59;;;4.60;71.02
58072;BME280;60383;46.626;18.866;2023-02-14T00:21:30;102253.00;;;4.60;71.15
58072;BME280;60383;46.626;18.866;2023-02-14T00:23:56;102257.09;;;4.69;71.07
58072;BME280;60383;46.626;18.866;2023-02-14T00:26:22;102256.16;;;4.51;70.85
58072;BME280;60383;46.626;18.866;2023-02-14T00:28:47;102250.41;;;4.57;71.36
58072;BME280;60383;46.626;18.866;2023-02-14T00:31:13;102244.22;;;4.55;71.04
58072;BME280;60383;46.626;18.866;2023-02-14T00:33:39;102238.47;;;4.42;71.83
58072;BME280;60383;46.626;18.866;2023-02-14T00:36:05;102244.06;;;4.39;71.62
58072;BME280;60383;46.626;18.866;2023-02-14T00:38:31;102237.81;;;4.37;72.15
58072;BME280;60383;46.626;18.866;2023-02-14T00:40:57;102237.81;;;4.37;71.91
58072;BME280;60383;46.626;18.866;2023-02-14T00:43:23;102248.22;;;4.27;72.18
58072;BME280;60383;46.626;18.866;2023-02-14T00:45:48;102236.47;;;4.26;72.07
58072;BME280;60383;46.626;18.866;2023-02-14T00:48:14;102242.03;;;4.04;72.93
58072;BME280;60383;46.626;18.866;2023-02-14T00:50:39;102244.94;;;3.99;73.06
58072;BME280;60383;46.626;18.866;2023-02-14T00:53:05;102244.53;;;4.09;73.01
58072;BME280;60383;46.626;18.866;2023-02-14T00:55:30;102240.63;;;3.95;73.13
58072;BME280;60383;46.626;18.866;2023-02-14T00:57:56;102237.50;;;4.05;73.56
58072;BME280;60383;46.626;18.866;2023-02-14T01:00:21;102244.22;;;3.96;72.88
58072;BME280;60383;46.626;18.866;2023-02-14T01:02:47;102234.09;;;3.99;73.16
58072;BME280;60383;46.626;18.866;2023-02-14T01:05:12;102237.19;;;3.92;73.03
58072;BME280;60383;46.626;18.866;2023-02-14T01:07:38;102240.03;;;3.89;72.86
58072;BME280;60383;46.626;18.866;2023-02-14T01:10:04;102239.63;;;3.77;73.29
58072;BME280;60383;46.626;18.866;2023-02-14T01:12:29;102229.28;;;3.66;73.94
58072;BME280;60383;46.626;18.866;2023-02-14T01:14:55;102232.34;;;3.59;74.12
58072;BME280;60383;46.626;18.866;2023-02-14T01:17:20;102217.09;;;3.56;74.33
58072;BME280;60383;46.626;18.866;2023-02-14T01:19:46;102220.00;;;3.51;74.54
58072;BME280;60383;46.626;18.866;2023-02-14T01:22:11;102227.59;;;3.64;74.50
58072;BME280;60383;46.626;18.866;2023-02-14T01:24:37;102216.72;;;3.84;73.85
58072;BME280;60383;46.626;18.866;2023-02-14T01:27:02;102216.59;;;3.88;73.42
58072;BME280;60383;46.626;18.866;2023-02-14T01:29:28;102224.94;;;3.83;73.85
58072;BME280;60383;46.626;18.866;2023-02-14T01:31:53;102216.09;;;3.78;74.21
58072;BME280;60383;46.626;18.866;2023-02-14T01:34:19;102222.41;;;3.99;73.61
58072;BME280;60383;46.626;18.866;2023-02-14T01:36:44;102210.72;;;3.97;73.64
58072;BME280;60383;46.626;18.866;2023-02-14T01:39:12;102216.16;;;3.97;73.73
58072;BME280;60383;46.626;18.866;2023-02-14T01:41:39;102218.75;;;4.00;74.04
58072;BME280;60383;46.626;18.866;2023-02-14T01:46:41;102220.78;;;4.14;73.41
58072;BME280;60383;46.626;18.866;2023-02-14T01:49:14;102214.06;;;4.04;73.80
58072;BME280;60383;46.626;18.866;2023-02-14T01:51:44;102205.34;;;4.16;73.79
58072;BME280;60383;46.626;18.866;2023-02-14T01:54:13;102197.34;;;4.13;73.59
58072;BME280;60383;46.626;18.866;2023-02-14T01:56:45;102192.53;;;4.39;72.84
58072;BME280;60383;46.626;18.866;2023-02-14T01:59:17;102192.94;;;4.48;72.70
58072;BME280;60383;46.626;18.866;2023-02-14T02:01:44;102184.81;;;4.48;72.63
58072;BME280;60383;46.626;18.866;2023-02-14T02:04:16;102186.88;;;4.80;71.25
58072;BME280;60383;46.626;18.866;2023-02-14T02:06:51;102183.97;;;4.66;71.76
58072;BME280;60383;46.626;18.866;2023-02-14T02:09:24;102181.72;;;4.56;71.44
58072;BME280;60383;46.626;18.866;2023-02-14T02:11:53;102181.28;;;4.83;70.91
58072;BME280;60383;46.626;18.866;2023-02-14T02:14:20;102185.84;;;4.83;71.02
58072;BME280;60383;46.626;18.866;2023-02-14T02:31:51;102165.66;;;4.52;71.71
58072;BME280;60383;46.626;18.866;2023-02-14T02:48:52;102171.84;;;4.17;72.49
58072;BME280;60383;46.626;18.866;2023-02-14T02:51:34;102159.13;;;3.98;74.22
58072;BME280;60383;46.626;18.866;2023-02-14T02:54:30;102152.97;;;3.95;73.98
58072;BME280;60383;46.626;18.866;2023-02-14T02:56:58;102156.59;;;4.14;73.12
58072;BME280;60383;46.626;18.866;2023-02-14T02:59:32;102164.50;;;4.00;73.20
58072;BME280;60383;46.626;18.866;2023-02-14T03:02:10;102158.19;;;3.99;73.13
58072;BME280;60383;46.626;18.866;2023-02-14T03:04:41;102158.56;;;3.92;73.15
58072;BME280;60383;46.626;18.866;2023-02-14T03:07:35;102158.16;;;4.01;73.05
58072;BME280;60383;46.626;18.866;2023-02-14T03:10:17;102146.13;;;3.88;73.25
58072;BME280;60383;46.626;18.866;2023-02-14T03:18:13;102143.97;;;3.94;73.61
58072;BME280;60383;46.626;18.866;2023-02-14T03:23:31;102166.47;;;3.57;74.06
58072;BME280;60383;46.626;18.866;2023-02-14T03:26:17;102170.41;;;3.49;74.73
58072;BME280;60383;46.626;18.866;2023-02-14T03:32:15;102174.25;;;3.64;74.36
58072;BME280;60383;46.626;18.866;2023-02-14T03:34:52;102165.72;;;3.74;73.96
58072;BME280;60383;46.626;18.866;2023-02-14T03:40:08;102161.97;;;3.76;73.80
58072;BME280;60383;46.626;18.866;2023-02-14T03:43:03;102164.47;;;3.81;73.53
58072;BME280;60383;46.626;18.866;2023-02-14T03:45:40;102155.28;;;3.64;73.99
58072;BME280;60383;46.626;18.866;2023-02-14T03:48:10;102158.56;;;3.31;74.74
58072;BME280;60383;46.626;18.866;2023-02-14T03:50:37;102169.75;;;3.24;75.54
58072;BME280;60383;46.626;18.866;2023-02-14T03:53:07;102168.81;;;3.45;74.95
58072;BME280;60383;46.626;18.866;2023-02-14T03:55:46;102171.16;;;3.32;75.64
58072;BME280;60383;46.626;18.866;2023-02-14T03:58:23;102166.50;;;3.36;75.47
58072;BME280;60383;46.626;18.866;2023-02-14T04:00:56;102170.03;;;3.38;75.02
58072;BME280;60383;46.626;18.866;2023-02-14T04:03:26;102166.78;;;3.30;75.17
58072;BME280;60383;46.626;18.866;2023-02-14T04:05:52;102166.56;;;3.34;75.35
58072;BME280;60383;46.626;18.866;2023-02-14T04:08:21;102161.44;;;3.28;75.26
58072;BME280;60383;46.626;18.866;2023-02-14T04:10:47;102155.59;;;3.38;74.96
58072;BME280;60383;46.626;18.866;2023-02-14T04:13:13;102157.16;;;3.43;75.09
58072;BME280;60383;46.626;18.866;2023-02-14T04:15:38;102156.13;;;3.25;74.86
58072;BME280;60383;46.626;18.866;2023-02-14T04:18:04;102162.78;;;3.18;75.04
58072;BME280;60383;46.626;18.866;2023-02-14T04:20:48;102159.75;;;3.26;75.11
58072;BME280;60383;46.626;18.866;2023-02-14T04:23:14;102153.59;;;3.22;75.29
58072;BME280;60383;46.626;18.866;2023-02-14T04:25:39;102153.41;;;3.04;76.03
58072;BME280;60383;46.626;18.866;2023-02-14T04:28:07;102152.41;;;3.07;75.84
58072;BME280;60383;46.626;18.866;2023-02-14T04:30:33;102150.53;;;3.09;75.75
58072;BME280;60383;46.626;18.866;2023-02-14T04:32:58;102154.91;;;2.91;76.16
58072;BME280;60383;46.626;18.866;2023-02-14T04:35:24;102157.53;;;3.13;75.92
58072;BME280;60383;46.626;18.866;2023-02-14T04:37:49;102142.53;;;3.06;75.81
58072;BME280;60383;46.626;18.866;2023-02-14T04:40:15;102146.47;;;2.77;76.47
58072;BME280;60383;46.626;18.866;2023-02-14T04:42:44;102143.97;;;2.72;77.28
58072;BME280;60383;46.626;18.866;2023-02-14T04:45:10;102149.44;;;2.70;77.58
58072;BME280;60383;46.626;18.866;2023-02-14T04:47:36;102144.03;;;2.70;77.81
58072;BME280;60383;46.626;18.866;2023-02-14T04:50:02;102149.06;;;2.80;77.59
58072;BME280;60383;46.626;18.866;2023-02-14T04:52:27;102143.22;;;2.68;77.77
58072;BME280;60383;46.626;18.866;2023-02-14T04:54:53;102147.00;;;2.64;77.99
58072;BME280;60383;46.626;18.866;2023-02-14T04:57:18;102148.84;;;2.64;78.04
58072;BME280;60383;46.626;18.866;2023-02-14T04:59:44;102154.03;;;2.68;78.04
58072;BME280;60383;46.626;18.866;2023-02-14T05:02:09;102152.59;;;2.60;78.65
58072;BME280;60383;46.626;18.866;2023-02-14T05:04:35;102153.84;;;2.73;77.73
58072;BME280;60383;46.626;18.866;2023-02-14T05:07:00;102151.72;;;2.59;77.92
58072;BME280;60383;46.626;18.866;2023-02-14T05:09:26;102149.88;;;2.60;78.39
58072;BME280;60383;46.626;18.866;2023-02-14T05:11:52;102150.97;;;2.55;78.05
58072;BME280;60383;46.626;18.866;2023-02-14T05:14:17;102149.22;;;2.54;78.30
58072;BME280;60383;46.626;18.866;2023-02-14T05:16:43;102152.28;;;2.45;78.87
58072;BME280;60383;46.626;18.866;2023-02-14T05:19:08;102155.75;;;2.49;78.70
58072;BME280;60383;46.626;18.866;2023-02-14T05:21:34;102156.69;;;2.70;77.85
58072;BME280;60383;46.626;18.866;2023-02-14T05:24:00;102159.78;;;2.61;77.92
58072;BME280;60383;46.626;18.866;2023-02-14T05:26:25;102165.09;;;2.62;78.52
58072;BME280;60383;46.626;18.866;2023-02-14T05:28:51;102164.09;;;2.65;78.33
58072;BME280;60383;46.626;18.866;2023-02-14T05:31:16;102165.97;;;2.85;77.84
58072;BME280;60383;46.626;18.866;2023-02-14T05:33:42;102164.59;;;2.52;78.30
58072;BME280;60383;46.626;18.866;2023-02-14T05:36:07;102154.25;;;2.64;78.23
58072;BME280;60383;46.626;18.866;2023-02-14T05:38:33;102161.91;;;2.52;78.84
58072;BME280;60383;46.626;18.866;2023-02-14T05:40:59;102166.13;;;2.60;79.36
58072;BME280;60383;46.626;18.866;2023-02-14T05:43:25;102166.19;;;2.58;79.26
58072;BME280;60383;46.626;18.866;2023-02-14T05:45:51;102177.28;;;2.52;79.08
58072;BME280;60383;46.626;18.866;2023-02-14T05:48:16;102175.41;;;2.54;79.66
58072;BME280;60383;46.626;18.866;2023-02-14T05:50:42;102167.56;;;2.46;79.73
58072;BME280;60383;46.626;18.866;2023-02-14T05:53:10;102175.75;;;2.45;79.62
58072;BME280;60383;46.626;18.866;2023-02-14T05:55:35;102169.00;;;2.55;79.46
58072;BME280;60383;46.626;18.866;2023-02-14T05:58:01;102163.13;;;2.67;79.21
58072;BME280;60383;46.626;18.866;2023-02-14T06:00:27;102171.72;;;2.77;78.85
58072;BME280;60383;46.626;18.866;2023-02-14T06:02:53;102178.00;;;2.78;78.82
58072;BME280;60383;46.626;18.866;2023-02-14T06:05:19;102170.03;;;2.95;79.01
58072;BME280;60383;46.626;18.866;2023-02-14T06:07:46;102176.22;;;3.19;77.72
58072;BME280;60383;46.626;18.866;2023-02-14T06:10:19;102173.78;;;3.13;77.95
58072;BME280;60383;46.626;18.866;2023-02-14T06:12:45;102177.88;;;3.03;77.98
58072;BME280;60383;46.626;18.866;2023-02-14T06:15:12;102177.25;;;3.17;77.91
58072;BME280;60383;46.626;18.866;2023-02-14T06:17:37;102183.88;;;3.10;78.20
58072;BME280;60383;46.626;18.866;2023-02-14T06:20:03;102179.97;;;3.17;78.36
58072;BME280;60383;46.626;18.866;2023-02-14T06:22:29;102177.47;;;3.12;78.06
58072;BME280;60383;46.626;18.866;2023-02-14T06:24:54;102180.13;;;3.34;78.12
58072;BME280;60383;46.626;18.866;2023-02-14T06:27:20;102183.41;;;3.41;78.02
58072;BME280;60383;46.626;18.866;2023-02-14T06:29:45;102180.28;;;3.71;76.67
58072;BME280;60383;46.626;18.866;2023-02-14T06:32:11;102191.63;;;4.00;75.83
58072;BME280;60383;46.626;18.866;2023-02-14T06:34:36;102183.84;;;4.11;75.03
58072;BME280;60383;46.626;18.866;2023-02-14T06:37:04;102191.91;;;4.32;74.69
58072;BME280;60383;46.626;18.866;2023-02-14T06:39:29;102179.19;;;4.34;74.43
58072;BME280;60383;46.626;18.866;2023-02-14T06:41:55;102180.84;;;4.92;72.35
58072;BME280;60383;46.626;18.866;2023-02-14T06:44:20;102175.56;;;5.24;71.85
58072;BME280;60383;46.626;18.866;2023-02-14T06:46:46;102186.56;;;5.56;70.47
58072;BME280;60383;46.626;18.866;2023-02-14T06:49:11;102181.59;;;5.82;69.36
58072;BME280;60383;46.626;18.866;2023-02-14T06:51:37;102185.03;;;5.68;69.88
58072;BME280;60383;46.626;18.866;2023-02-14T06:54:02;102188.28;;;5.41;70.38
58072;BME280;60383;46.626;18.866;2023-02-14T06:56:28;102186.44;;;5.42;71.04
58072;BME280;60383;46.626;18.866;2023-02-14T06:58:53;102185.09;;;5.16;71.20
58072;BME280;60383;46.626;18.866;2023-02-14T07:01:19;102179.75;;;5.14;72.72
58072;BME280;60383;46.626;18.866;2023-02-14T07:03:44;102181.56;;;5.14;72.70
58072;BME280;60383;46.626;18.866;2023-02-14T07:06:10;102190.06;;;5.25;71.83
58072;BME280;60383;46.626;18.866;2023-02-14T07:08:35;102186.75;;;5.18;72.27
58072;BME280;60383;46.626;18.866;2023-02-14T07:11:01;102188.75;;;5.15;72.74
58072;BME280;60383;46.626;18.866;2023-02-14T07:13:26;102189.16;;;5.07;73.24
58072;BME280;60383;46.626;18.866;2023-02-14T07:15:52;102195.53;;;5.06;73.47
58072;BME280;60383;46.626;18.866;2023-02-14T07:18:18;102186.13;;;5.13;73.27
58072;BME280;60383;46.626;18.866;2023-02-14T07:20:43;102189.06;;;5.08;73.29
58072;BME280;60383;46.626;18.866;2023-02-14T07:23:09;102191.78;;;5.26;72.67
58072;BME280;60383;46.626;18.866;2023-02-14T07:25:35;102193.25;;;5.16;73.17
58072;BME280;60383;46.626;18.866;2023-02-14T07:28:00;102184.84;;;5.20;73.73
58072;BME280;60383;46.626;18.866;2023-02-14T07:30:26;102189.34;;;5.21;73.18
58072;BME280;60383;46.626;18.866;2023-02-14T07:32:52;102192.44;;;5.14;73.08
58072;BME280;60383;46.626;18.866;2023-02-14T07:35:18;102196.22;;;5.28;73.07
58072;BME280;60383;46.626;18.866;2023-02-14T07:37:43;102196.03;;;5.32;73.37
58072;BME280;60383;46.626;18.866;2023-02-14T07:40:10;102194.44;;;5.45;72.23
58072;BME280;60383;46.626;18.866;2023-02-14T07:42:35;102198.50;;;5.36;73.15
58072;BME280;60383;46.626;18.866;2023-02-14T07:45:01;102188.13;;;5.44;73.81
58072;BME280;60383;46.626;18.866;2023-02-14T07:47:27;102193.56;;;5.44;72.85
58072;BME280;60383;46.626;18.866;2023-02-14T07:49:52;102193.63;;;5.60;72.45
58072;BME280;60383;46.626;18.866;2023-02-14T07:52:18;102200.34;;;5.36;73.46
58072;BME280;60383;46.626;18.866;2023-02-14T07:54:43;102190.34;;;5.54;72.40
58072;BME280;60383;46.626;18.866;2023-02-14T07:57:09;102198.56;;;5.52;73.33
58072;BME280;60383;46.626;18.866;2023-02-14T07:59:34;102196.38;;;5.76;72.00
58072;BME280;60383;46.626;18.866;2023-02-14T08:02:00;102205.13;;;5.66;72.30
58072;BME280;60383;46.626;18.866;2023-02-14T08:04:25;102198.50;;;5.71;72.33
58072;BME280;60383;46.626;18.866;2023-02-14T08:06:52;102199.81;;;5.80;71.76
58072;BME280;60383;46.626;18.866;2023-02-14T08:09:18;102199.91;;;5.79;71.93
58072;BME280;60383;46.626;18.866;2023-02-14T08:11:54;102202.97;;;5.72;73.04
58072;BME280;60383;46.626;18.866;2023-02-14T08:14:39;102196.16;;;5.81;72.19
58072;BME280;60383;46.626;18.866;2023-02-14T08:17:05;102204.22;;;5.83;71.75
58072;BME280;60383;46.626;18.866;2023-02-14T08:19:32;102205.41;;;5.77;72.36
58072;BME280;60383;46.626;18.866;2023-02-14T08:21:58;102207.41;;;5.73;73.27
58072;BME280;60383;46.626;18.866;2023-02-14T08:24:24;102205.72;;;5.88;72.00
58072;BME280;60383;46.626;18.866;2023-02-14T08:26:50;102205.16;;;5.82;72.80
58072;BME280;60383;46.626;18.866;2023-02-14T08:29:15;102202.47;;;5.99;71.56
58072;BME280;60383;46.626;18.866;2023-02-14T08:31:41;102187.03;;;5.82;72.44
58072;BME280;60383;46.626;18.866;2023-02-14T08:34:06;102202.25;;;5.69;72.67
58072;BME280;60383;46.626;18.866;2023-02-14T08:36:32;102198.53;;;5.70;71.97
58072;BME280;60383;46.626;18.866;2023-02-14T08:38:59;102198.44;;;5.89;71.65
58072;BME280;60383;46.626;18.866;2023-02-14T08:41:25;102201.50;;;6.00;71.82
58072;BME280;60383;46.626;18.866;2023-02-14T08:43:51;102203.34;;;6.16;71.41
58072;BME280;60383;46.626;18.866;2023-02-14T08:46:16;102207.38;;;6.08;71.34
58072;BME280;60383;46.626;18.866;2023-02-14T08:48:42;102207.75;;;6.18;71.21
58072;BME280;60383;46.626;18.866;2023-02-14T08:51:10;102218.72;;;6.17;71.07
58072;BME280;60383;46.626;18.866;2023-02-14T08:53:37;102212.31;;;6.18;71.58
58072;BME280;60383;46.626;18.866;2023-02-14T08:56:05;102218.63;;;6.18;70.76
58072;BME280;60383;46.626;18.866;2023-02-14T08:58:31;102221.94;;;5.90;72.04
58072;BME280;60383;46.626;18.866;2023-02-14T09:00:57;102231.53;;;5.97;72.62
58072;BME280;60383;46.626;18.866;2023-02-14T09:03:23;102228.44;;;5.87;73.47
58072;BME280;60383;46.626;18.866;2023-02-14T09:05:48;102229.97;;;5.93;72.95
58072;BME280;60383;46.626;18.866;2023-02-14T09:08:14;102234.16;;;5.65;72.75
58072;BME280;60383;46.626;18.866;2023-02-14T09:10:39;102235.88;;;5.84;72.24
58072;BME280;60383;46.626;18.866;2023-02-14T09:13:05;102235.75;;;5.69;73.27
58072;BME280;60383;46.626;18.866;2023-02-14T09:15:30;102234.13;;;5.83;73.75
58072;BME280;60383;46.626;18.866;2023-02-14T09:17:56;102241.47;;;5.98;73.05
58072;BME280;60383;46.626;18.866;2023-02-14T09:20:21;102232.56;;;6.12;72.27
58072;BME280;60383;46.626;18.866;2023-02-14T09:22:47;102232.38;;;5.99;73.08
58072;BME280;60383;46.626;18.866;2023-02-14T09:25:12;102243.78;;;6.06;73.29
58072;BME280;60383;46.626;18.866;2023-02-14T09:27:38;102241.56;;;6.30;72.00
58072;BME280;60383;46.626;18.866;2023-02-14T09:30:05;102235.78;;;5.85;73.23
58072;BME280;60383;46.626;18.866;2023-02-14T09:32:31;102236.59;;;5.87;73.26
58072;BME280;60383;46.626;18.866;2023-02-14T09:34:57;102246.34;;;6.09;72.17
58072;BME280;60383;46.626;18.866;2023-02-14T09:37:41;102244.84;;;6.03;73.10
58072;BME280;60383;46.626;18.866;2023-02-14T09:40:25;102246.16;;;6.46;71.15
58072;BME280;60383;46.626;18.866;2023-02-14T09:45:24;102242.28;;;6.50;70.95
58072;BME280;60383;46.626;18.866;2023-02-14T09:47:55;102236.22;;;6.29;70.95
58072;BME280;60383;46.626;18.866;2023-02-14T09:50:29;102236.13;;;6.46;71.47
58072;BME280;60383;46.626;18.866;2023-02-14T09:53:03;102229.56;;;6.66;70.74
58072;BME280;60383;46.626;18.866;2023-02-14T09:56:07;102236.84;;;6.66;70.34
58072;BME280;60383;46.626;18.866;2023-02-14T10:01:43;102229.06;;;6.76;70.88
58072;BME280;60383;46.626;18.866;2023-02-14T10:04:27;102220.78;;;6.61;71.21
58072;BME280;60383;46.626;18.866;2023-02-14T10:06:59;102222.69;;;6.75;70.59
58072;BME280;60383;46.626;18.866;2023-02-14T10:09:55;102219.44;;;7.00;68.92
58072;BME280;60383;46.626;18.866;2023-02-14T10:12:28;102214.19;;;6.81;69.52
58072;BME280;60383;46.626;18.866;2023-02-14T10:14:58;102221.56;;;6.79;69.28
58072;BME280;60383;46.626;18.866;2023-02-14T10:17:40;102216.84;;;6.83;69.22
58072;BME280;60383;46.626;18.866;2023-02-14T10:20:44;102222.03;;;7.18;67.97
58072;BME280;60383;46.626;18.866;2023-02-14T10:26:02;102218.13;;;7.38;66.47
58072;BME280;60383;46.626;18.866;2023-02-14T10:28:41;102214.91;;;7.15;67.77
58072;BME280;60383;46.626;18.866;2023-02-14T10:31:17;102214.41;;;7.09;67.86
58072;BME280;60383;46.626;18.866;2023-02-14T10:33:51;102215.06;;;7.28;67.13
58072;BME280;60383;46.626;18.866;2023-02-14T10:39:10;102222.31;;;7.44;67.45
58072;BME280;60383;46.626;18.866;2023-02-14T10:44:31;102211.50;;;7.42;66.18
58072;BME280;60383;46.626;18.866;2023-02-14T10:47:24;102204.09;;;7.44;66.59
58072;BME280;60383;46.626;18.866;2023-02-14T10:55:23;102213.41;;;7.26;66.44
58072;BME280;60383;46.626;18.866;2023-02-14T10:57:53;102207.81;;;7.43;65.90
58072;BME280;60383;46.626;18.866;2023-02-14T11:00:34;102204.78;;;7.48;65.31
58072;BME280;60383;46.626;18.866;2023-02-14T11:03:05;102205.25;;;7.85;64.31
58072;BME280;60383;46.626;18.866;2023-02-14T11:05:38;102205.03;;;7.88;64.74
58072;BME280;60383;46.626;18.866;2023-02-14T11:08:28;102206.25;;;7.98;64.00
58072;BME280;60383;46.626;18.866;2023-02-14T11:11:04;102199.50;;;8.04;63.75
58072;BME280;60383;46.626;18.866;2023-02-14T11:13:37;102190.22;;;8.36;62.29
58072;BME280;60383;46.626;18.866;2023-02-14T11:16:09;102188.97;;;8.27;62.96
58072;BME280;60383;46.626;18.866;2023-02-14T11:18:39;102198.13;;;8.55;60.73
58072;BME280;60383;46.626;18.866;2023-02-14T11:21:09;102188.56;;;8.19;62.82
58072;BME280;60383;46.626;18.866;2023-02-14T11:23:41;102194.44;;;8.12;63.69
58072;BME280;60383;46.626;18.866;2023-02-14T11:26:16;102200.56;;;7.87;64.86
58072;BME280;60383;46.626;18.866;2023-02-14T11:28:50;102196.19;;;8.13;63.08
58072;BME280;60383;46.626;18.866;2023-02-14T11:31:28;102193.28;;;8.17;62.90
58072;BME280;60383;46.626;18.866;2023-02-14T11:33:55;102202.59;;;7.83;63.52
58072;BME280;60383;46.626;18.866;2023-02-14T11:36:22;102199.13;;;7.81;63.91
58072;BME280;60383;46.626;18.866;2023-02-14T11:39:18;102201.13;;;7.63;64.32
58072;BME280;60383;46.626;18.866;2023-02-14T11:41:52;102193.88;;;7.48;65.38
58072;BME280;60383;46.626;18.866;2023-02-14T11:44:22;102198.00;;;7.55;65.00
58072;BME280;60383;46.626;18.866;2023-02-14T11:46:54;102193.84;;;7.78;63.73
58072;BME280;60383;46.626;18.866;2023-02-14T11:49:33;102190.59;;;7.57;64.63
58072;BME280;60383;46.626;18.866;2023-02-14T11:52:09;102195.97;;;7.73;64.55
58072;BME280;60383;46.626;18.866;2023-02-14T11:54:39;102186.41;;;7.51;65.33
58072;BME280;60383;46.626;18.866;2023-02-14T11:57:11;102184.84;;;7.47;64.87
58072;BME280;60383;46.626;18.866;2023-02-14T11:59:41;102182.50;;;7.41;64.22
58072;BME280;60383;46.626;18.866;2023-02-14T12:07:34;102175.25;;;7.99;63.99
58072;BME280;60383;46.626;18.866;2023-02-14T12:12:33;102172.34;;;8.44;62.50
58072;BME280;60383;46.626;18.866;2023-02-14T12:15:23;102164.91;;;8.19;60.99
58072;BME280;60383;46.626;18.866;2023-02-14T12:17:54;102162.88;;;7.79;62.02
58072;BME280;60383;46.626;18.866;2023-02-14T12:20:38;102173.78;;;7.94;62.51
58072;BME280;60383;46.626;18.866;2023-02-14T12:25:46;102168.91;;;7.99;62.78
58072;BME280;60383;46.626;18.866;2023-02-14T12:28:20;102167.94;;;8.14;61.81
58072;BME280;60383;46.626;18.866;2023-02-14T12:30:48;102165.19;;;8.00;62.56
58072;BME280;60383;46.626;18.866;2023-02-14T12:33:20;102158.84;;;8.14;61.70
58072;BME280;60383;46.626;18.866;2023-02-14T12:36:09;102160.59;;;8.15;61.39
58072;BME280;60383;46.626;18.866;2023-02-14T12:38:51;102163.81;;;8.36;60.68
58072;BME280;60383;46.626;18.866;2023-02-14T12:47:53;102137.69;;;8.74;58.40
58072;BME280;60383;46.626;18.866;2023-02-14T12:50:31;102140.66;;;8.84;58.75
58072;BME280;60383;46.626;18.866;2023-02-14T13:03:43;102146.38;;;7.66;63.13
58072;BME280;60383;46.626;18.866;2023-02-14T13:17:37;102138.88;;;7.70;63.26
58072;BME280;60383;46.626;18.866;2023-02-14T13:20:32;102141.19;;;8.20;61.43
58072;BME280;60383;46.626;18.866;2023-02-14T13:23:04;102145.31;;;7.83;61.47
58072;BME280;60383;46.626;18.866;2023-02-14T13:25:42;102131.00;;;7.94;62.15
58072;BME280;60383;46.626;18.866;2023-02-14T13:28:14;102137.81;;;8.02;61.53
58072;BME280;60383;46.626;18.866;2023-02-14T13:30:40;102128.78;;;8.28;61.00
58072;BME280;60383;46.626;18.866;2023-02-14T13:33:19;102133.97;;;8.47;60.90
58072;BME280;60383;46.626;18.866;2023-02-14T13:35:47;102135.81;;;8.47;61.38
58072;BME280;60383;46.626;18.866;2023-02-14T13:38:14;102131.22;;;8.47;61.08
58072;BME280;60383;46.626;18.866;2023-02-14T13:40:42;102138.78;;;8.71;59.88
58072;BME280;60383;46.626;18.866;2023-02-14T13:43:08;102137.44;;;8.64;59.20
58072;BME280;60383;46.626;18.866;2023-02-14T13:48:13;102137.69;;;8.18;61.46
58072;BME280;60383;46.626;18.866;2023-02-14T13:51:03;102131.78;;;7.96;61.41
58072;BME280;60383;46.626;18.866;2023-02-14T13:53:33;102136.66;;;8.06;61.76
58072;BME280;60383;46.626;18.866;2023-02-14T13:56:02;102140.16;;;7.93;61.78
58072;BME280;60383;46.626;18.866;2023-02-14T13:58:28;102142.59;;;7.98;61.54
58072;BME280;60383;46.626;18.866;2023-02-14T14:00:54;102139.00;;;7.97;61.56
58072;BME280;60383;46.626;18.866;2023-02-14T14:06:07;102135.44;;;8.24;61.26
58072;BME280;60383;46.626;18.866;2023-02-14T14:11:08;102134.84;;;8.34;60.71
58072;BME280;60383;46.626;18.866;2023-02-14T14:18:43;102141.59;;;8.28;61.25
58072;BME280;60383;46.626;18.866;2023-02-14T14:26:44;102134.78;;;8.06;62.46
58072;BME280;60383;46.626;18.866;2023-02-14T14:29:29;102130.59;;;8.00;62.11
58072;BME280;60383;46.626;18.866;2023-02-14T14:31:55;102128.53;;;8.04;62.11
58072;BME280;60383;46.626;18.866;2023-02-14T14:34:27;102127.97;;;7.84;63.00
58072;BME280;60383;46.626;18.866;2023-02-14T14:37:04;102134.63;;;7.95;62.60
58072;BME280;60383;46.626;18.866;2023-02-14T14:39:32;102130.25;;;7.78;62.66
58072;BME280;60383;46.626;18.866;2023-02-14T14:44:33;102122.41;;;7.86;63.52
58072;BME280;60383;46.626;18.866;2023-02-14T14:46:59;102126.63;;;7.92;63.23
58072;BME280;60383;46.626;18.866;2023-02-14T14:49:26;102122.91;;;7.93;62.80
58072;BME280;60383;46.626;18.866;2023-02-14T14:51:54;102128.25;;;7.65;63.40
58072;BME280;60383;46.626;18.866;2023-02-14T14:54:20;102134.22;;;7.72;63.87
58072;BME280;60383;46.626;18.866;2023-02-14T14:56:58;102127.88;;;8.00;62.78
58072;BME280;60383;46.626;18.866;2023-02-14T15:01:55;102137.44;;;7.64;63.66
58072;BME280;60383;46.626;18.866;2023-02-14T15:04:29;102132.28;;;7.60;63.59
58072;BME280;60383;46.626;18.866;2023-02-14T15:06:57;102140.16;;;7.50;64.27
58072;BME280;60383;46.626;18.866;2023-02-14T15:09:40;102135.47;;;7.66;63.51
58072;BME280;60383;46.626;18.866;2023-02-14T15:12:08;102145.00;;;7.30;64.19